Time;durP1;ratioP1;P1;durP2;ratioP2;P2;SDS_P1;SDS_P2;PMS_P1;PMS_P2;Temp;Humidity;BMP_temperature;BMP_pressure;BME280_temperature;BME280_humidity;BME280_pressure;Samples;Min_cycle;Max_cycle;Signal;HPM_P1;HPM_P2
2023/08/05 00:00:54;;;;;;;11.13;5.90;;;;;;;;;;5064136;28;20052;-60
2023/08/05 00:03:20;;;;;;;11.43;6.40;;;;;;;;;;5052210;28;20056;-60
2023/08/05 00:05:46;;;;;;;15.13;7.13;;;;;;;;;;5051279;28;20041;-60
2023/08/05 00:08:12;;;;;;;16.73;7.43;;;;;;;;;;5051180;28;20053;-63
2023/08/05 00:10:42;;;;;;;22.03;8.63;;;;;;;;;;5050946;28;20059;-61
2023/08/05 00:13:08;;;;;;;22.50;9.40;;;;;;;;;;5050696;28;20060;-60
2023/08/05 00:15:34;;;;;;;15.77;9.37;;;;;;;;;;5050929;28;20048;-60
2023/08/05 00:18:00;;;;;;;18.10;8.00;;;;;;;;;;5050859;28;20090;-60
2023/08/05 00:20:26;;;;;;;20.73;10.20;;;;;;;;;;5050481;28;20563;-61
2023/08/05 00:22:52;;;;;;;21.23;9.50;;;;;;;;;;5050193;28;20049;-61
2023/08/05 00:25:18;;;;;;;18.63;9.37;;;;;;;;;;5050559;28;20143;-60
2023/08/05 00:27:44;;;;;;;25.37;10.40;;;;;;;;;;5050266;28;20075;-60
2023/08/05 00:30:10;;;;;;;19.93;10.00;;;;;;;;;;5050415;28;20045;-60
2023/08/05 00:32:36;;;;;;;18.00;9.83;;;;;;;;;;5050120;28;20043;-60
2023/08/05 00:35:05;;;;;;;19.77;9.03;;;;;;;;;;5053662;28;20056;-60
2023/08/05 00:37:32;;;;;;;20.43;9.83;;;;;;;;;;5048945;28;20090;-60
2023/08/05 00:39:58;;;;;;;18.43;10.43;;;;;;;;;;5050169;28;20076;-60
2023/08/05 00:42:26;;;;;;;23.27;11.37;;;;;;;;;;5050331;28;20569;-60
2023/08/05 00:44:52;;;;;;;27.37;11.33;;;;;;;;;;5049817;28;20060;-60
2023/08/05 00:47:18;;;;;;;25.57;10.97;;;;;;;;;;5049881;28;20045;-60
2023/08/05 00:49:45;;;;;;;20.70;11.80;;;;;;;;;;5050358;28;20464;-61
2023/08/05 00:52:12;;;;;;;20.07;10.43;;;;;;;;;;5049442;28;20057;-60
2023/08/05 00:54:38;;;;;;;24.23;11.03;;;;;;;;;;5049534;28;20041;-60
2023/08/05 00:57:04;;;;;;;20.33;11.53;;;;;;;;;;5049364;28;20047;-60
2023/08/05 00:59:30;;;;;;;23.60;11.93;;;;;;;;;;5048660;28;20052;-60
2023/08/05 01:01:56;;;;;;;25.43;12.07;;;;;;;;;;5048638;28;20049;-61
2023/08/05 01:04:22;;;;;;;28.23;13.47;;;;;;;;;;5059636;28;20123;-60
2023/08/05 01:06:48;;;;;;;27.87;13.23;;;;;;;;;;5069896;28;20494;-60
2023/08/05 01:09:14;;;;;;;27.73;13.80;;;;;;;;;;5069752;28;20044;-60
2023/08/05 01:11:40;;;;;;;32.80;14.00;;;;;;;;;;5069066;28;20044;-60
2023/08/05 01:14:06;;;;;;;29.97;13.23;;;;;;;;;;5069445;28;20106;-60
2023/08/05 01:16:32;;;;;;;33.33;13.03;;;;;;;;;;5069525;28;20433;-61
2023/08/05 01:18:59;;;;;;;27.03;13.53;;;;;;;;;;5061452;28;20068;-60
2023/08/05 01:21:33;;;;;;;28.30;13.23;;;;;;;;;;5047443;28;20154;-60
2023/08/05 01:24:11;;;;;;;28.80;13.97;;;;;;;;;;5048522;28;20091;-60
2023/08/05 01:26:38;;;;;;;27.97;13.97;;;;;;;;;;5048763;28;20055;-60
2023/08/05 01:29:05;;;;;;;30.27;12.73;;;;;;;;;;5049443;28;20110;-60
2023/08/05 01:31:32;;;;;;;24.17;13.27;;;;;;;;;;5049416;28;20049;-60
2023/08/05 01:33:58;;;;;;;32.43;14.40;;;;;;;;;;5048880;28;20048;-60
2023/08/05 01:36:24;;;;;;;27.30;13.53;;;;;;;;;;5049492;28;20682;-60
2023/08/05 01:38:50;;;;;;;32.40;14.50;;;;;;;;;;5049277;28;20049;-60
2023/08/05 01:41:16;;;;;;;30.77;14.30;;;;;;;;;;5049121;28;20507;-61
2023/08/05 01:43:42;;;;;;;26.50;13.27;;;;;;;;;;5048611;28;20041;-60
2023/08/05 01:46:08;;;;;;;29.37;13.10;;;;;;;;;;5049137;28;20053;-60
2023/08/05 01:48:34;;;;;;;32.53;13.47;;;;;;;;;;5048825;28;20049;-61
2023/08/05 01:51:00;;;;;;;24.27;12.80;;;;;;;;;;5048651;28;20131;-60
2023/08/05 01:53:26;;;;;;;30.50;14.40;;;;;;;;;;5048921;28;20149;-60
2023/08/05 01:55:52;;;;;;;31.07;13.53;;;;;;;;;;5053129;28;20040;-60
2023/08/05 01:58:19;;;;;;;23.87;12.50;;;;;;;;;;5068600;28;20040;-60
2023/08/05 02:00:51;;;;;;;24.03;12.27;;;;;;;;;;5068849;28;20063;-60
2023/08/05 02:03:17;;;;;;;25.97;12.43;;;;;;;;;;5068616;28;20139;-60
2023/08/05 02:05:43;;;;;;;22.93;11.27;;;;;;;;;;5068511;28;20135;-60
2023/08/05 02:08:09;;;;;;;20.10;11.43;;;;;;;;;;5068217;28;20037;-61
2023/08/05 02:10:37;;;;;;;24.07;12.27;;;;;;;;;;5067780;28;20044;-61
2023/08/05 02:13:03;;;;;;;21.17;11.13;;;;;;;;;;5068561;28;20052;-60
2023/08/05 02:15:29;;;;;;;21.93;10.73;;;;;;;;;;5052552;28;20051;-60
2023/08/05 02:17:55;;;;;;;20.80;11.10;;;;;;;;;;5048578;28;20049;-61
2023/08/05 02:20:21;;;;;;;22.60;12.17;;;;;;;;;;5048357;28;20082;-60
2023/08/05 02:22:47;;;;;;;24.70;11.30;;;;;;;;;;5047738;28;20652;-60
2023/08/05 02:25:13;;;;;;;20.40;10.40;;;;;;;;;;5048153;28;20045;-60
2023/08/05 02:27:40;;;;;;;20.23;10.23;;;;;;;;;;5048263;28;20045;-60
2023/08/05 02:30:06;;;;;;;20.77;11.00;;;;;;;;;;5048202;28;20510;-60
2023/08/05 02:32:32;;;;;;;22.20;11.00;;;;;;;;;;5048367;28;20045;-60
2023/08/05 02:34:58;;;;;;;15.63;9.80;;;;;;;;;;5048315;28;20048;-61
2023/08/05 02:37:24;;;;;;;22.03;11.17;;;;;;;;;;5048067;28;20041;-60
2023/08/05 02:39:50;;;;;;;17.90;9.67;;;;;;;;;;5047808;28;20123;-61
2023/08/05 02:42:16;;;;;;;17.60;9.57;;;;;;;;;;5047987;28;20049;-62
2023/08/05 02:44:42;;;;;;;15.33;8.77;;;;;;;;;;5048197;28;20037;-60
2023/08/05 02:47:08;;;;;;;21.03;10.47;;;;;;;;;;5059380;28;20051;-60
2023/08/05 02:49:34;;;;;;;23.37;10.57;;;;;;;;;;5066329;28;20086;-61
2023/08/05 02:52:00;;;;;;;20.57;8.93;;;;;;;;;;5068122;28;20066;-61
2023/08/05 02:54:27;;;;;;;17.77;9.10;;;;;;;;;;5068217;28;20037;-61
2023/08/05 02:56:53;;;;;;;16.07;8.87;;;;;;;;;;5067538;28;20051;-60
2023/08/05 02:59:19;;;;;;;12.83;9.17;;;;;;;;;;5068237;28;20049;-60
2023/08/05 03:01:45;;;;;;;13.80;9.10;;;;;;;;;;5068255;28;20051;-61
2023/08/05 03:04:11;;;;;;;17.10;9.90;;;;;;;;;;5067903;28;20036;-60
2023/08/05 03:06:37;;;;;;;16.83;8.93;;;;;;;;;;5067809;28;20083;-60
2023/08/05 03:09:03;;;;;;;17.77;9.70;;;;;;;;;;5068217;28;20693;-60
2023/08/05 03:11:33;;;;;;;20.73;9.67;;;;;;;;;;5068022;28;20407;-60
2023/08/05 03:13:59;;;;;;;16.73;8.60;;;;;;;;;;5068146;28;20102;-60
2023/08/05 03:16:25;;;;;;;17.67;9.83;;;;;;;;;;5068036;28;20052;-60
2023/08/05 03:18:51;;;;;;;20.37;10.10;;;;;;;;;;5067357;28;20048;-60
2023/08/05 03:21:17;;;;;;;18.90;9.90;;;;;;;;;;5070372;28;20121;-60
2023/08/05 03:23:43;;;;;;;15.23;8.63;;;;;;;;;;5052831;28;20049;-60
2023/08/05 03:26:09;;;;;;;22.23;9.87;;;;;;;;;;5051572;28;20041;-60
2023/08/05 03:28:35;;;;;;;17.60;9.17;;;;;;;;;;5050982;28;20045;-60
2023/08/05 03:31:01;;;;;;;14.83;8.37;;;;;;;;;;5051602;28;20091;-60
2023/08/05 03:33:28;;;;;;;18.97;9.73;;;;;;;;;;5056283;28;20041;-60
2023/08/05 03:35:54;;;;;;;14.97;8.07;;;;;;;;;;5054501;28;20133;-60
2023/08/05 03:38:20;;;;;;;16.43;9.53;;;;;;;;;;5050860;28;20051;-60
2023/08/05 03:40:46;;;;;;;17.37;9.30;;;;;;;;;;5051509;28;20136;-60
2023/08/05 03:43:12;;;;;;;19.00;9.60;;;;;;;;;;5051011;28;20057;-60
2023/08/05 03:45:38;;;;;;;16.40;9.23;;;;;;;;;;5050949;28;20052;-60
2023/08/05 03:48:05;;;;;;;16.67;10.20;;;;;;;;;;5050768;28;20501;-60
2023/08/05 03:50:31;;;;;;;16.97;8.57;;;;;;;;;;5051238;28;20045;-60
2023/08/05 03:52:57;;;;;;;16.27;9.57;;;;;;;;;;5051092;28;20041;-61
2023/08/05 03:55:23;;;;;;;17.47;9.53;;;;;;;;;;5051128;28;20060;-60
2023/08/05 03:57:50;;;;;;;14.93;8.40;;;;;;;;;;5050385;28;20052;-60
2023/08/05 04:00:17;;;;;;;14.07;8.70;;;;;;;;;;5050996;28;20503;-60
2023/08/05 04:02:43;;;;;;;18.67;8.87;;;;;;;;;;5050786;28;20056;-61
2023/08/05 04:05:09;;;;;;;18.00;9.27;;;;;;;;;;5050107;28;20053;-60
2023/08/05 04:07:35;;;;;;;15.97;9.37;;;;;;;;;;5051036;28;20411;-60
2023/08/05 04:10:02;;;;;;;16.37;9.20;;;;;;;;;;5050965;28;20053;-61
2023/08/05 04:12:28;;;;;;;20.00;9.87;;;;;;;;;;5049176;28;20466;-61
2023/08/05 04:14:58;;;;;;;17.53;9.23;;;;;;;;;;5050587;28;20045;-60
2023/08/05 04:17:24;;;;;;;19.63;10.00;;;;;;;;;;5050032;28;20060;-61
2023/08/05 04:19:50;;;;;;;20.00;10.37;;;;;;;;;;5050698;28;20403;-60
2023/08/05 04:22:20;;;;;;;15.83;8.60;;;;;;;;;;5050151;28;20045;-61
2023/08/05 04:24:46;;;;;;;18.13;8.13;;;;;;;;;;5050201;28;20080;-60
2023/08/05 04:27:12;;;;;;;12.53;7.23;;;;;;;;;;5050235;28;20127;-60
2023/08/05 04:29:38;;;;;;;15.13;7.93;;;;;;;;;;5050323;28;20571;-60
2023/08/05 04:32:04;;;;;;;12.97;7.00;;;;;;;;;;5056710;28;20048;-60
2023/08/05 04:34:35;;;;;;;16.33;8.67;;;;;;;;;;5068948;28;20037;-61
2023/08/05 04:37:15;;;;;;;15.33;7.77;;;;;;;;;;5052345;28;20405;-60
2023/08/05 04:39:41;;;;;;;12.53;7.77;;;;;;;;;;5050408;28;20049;-60
2023/08/05 04:42:07;;;;;;;16.43;8.43;;;;;;;;;;5049861;28;20111;-61
2023/08/05 04:44:33;;;;;;;19.37;8.33;;;;;;;;;;5066027;28;20037;-61
2023/08/05 04:46:59;;;;;;;16.43;8.83;;;;;;;;;;5069114;28;20135;-60
2023/08/05 04:49:25;;;;;;;16.40;9.00;;;;;;;;;;5070067;28;20383;-61
2023/08/05 04:51:51;;;;;;;14.87;8.80;;;;;;;;;;5070136;28;20047;-61
2023/08/05 04:54:17;;;;;;;14.73;8.60;;;;;;;;;;5069468;28;20045;-61
2023/08/05 04:56:43;;;;;;;15.90;8.97;;;;;;;;;;5069893;28;20040;-61
2023/08/05 04:59:09;;;;;;;17.20;9.27;;;;;;;;;;5069474;28;20410;-60
2023/08/05 05:01:35;;;;;;;14.53;8.40;;;;;;;;;;5070046;28;20044;-61
2023/08/05 05:04:01;;;;;;;13.80;8.50;;;;;;;;;;5069628;28;20052;-61
2023/08/05 05:06:27;;;;;;;14.03;9.37;;;;;;;;;;5068674;28;20067;-61
2023/08/05 05:08:53;;;;;;;14.50;8.37;;;;;;;;;;5069923;28;20687;-61
2023/08/05 05:11:19;;;;;;;15.77;7.77;;;;;;;;;;5069611;28;20040;-61
2023/08/05 05:13:50;;;;;;;11.57;7.63;;;;;;;;;;5069098;28;20158;-61
2023/08/05 05:16:16;;;;;;;11.67;8.13;;;;;;;;;;5069657;28;20044;-61
2023/08/05 05:18:42;;;;;;;15.63;7.83;;;;;;;;;;5068694;28;20059;-61
2023/08/05 05:21:08;;;;;;;15.67;7.97;;;;;;;;;;5058237;28;20483;-61
2023/08/05 05:23:34;;;;;;;8.77;6.00;;;;;;;;;;5048311;28;20052;-61
2023/08/05 05:26:00;;;;;;;10.77;6.13;;;;;;;;;;5049488;28;20044;-61
2023/08/05 05:28:26;;;;;;;13.93;6.77;;;;;;;;;;5049163;28;20113;-60
2023/08/05 05:30:52;;;;;;;9.90;6.07;;;;;;;;;;5057808;28;20044;-61
2023/08/05 05:33:18;;;;;;;16.77;6.00;;;;;;;;;;5069560;28;20044;-61
2023/08/05 05:35:44;;;;;;;11.60;5.53;;;;;;;;;;5065445;28;20059;-61
2023/08/05 05:38:10;;;;;;;10.30;5.60;;;;;;;;;;5068677;28;20036;-60
2023/08/05 05:40:41;;;;;;;10.73;5.27;;;;;;;;;;5069587;28;20124;-60
2023/08/05 05:43:08;;;;;;;7.70;5.33;;;;;;;;;;5068071;28;20057;-60
2023/08/05 05:45:37;;;;;;;11.27;6.03;;;;;;;;;;5048608;28;20045;-61
2023/08/05 05:48:03;;;;;;;10.17;6.03;;;;;;;;;;5048645;28;20056;-61
2023/08/05 05:50:30;;;;;;;8.80;5.43;;;;;;;;;;5048720;28;20053;-60
2023/08/05 05:52:56;;;;;;;12.73;6.80;;;;;;;;;;5048756;28;20147;-61
2023/08/05 05:55:22;;;;;;;8.83;5.93;;;;;;;;;;5048347;28;20045;-61
2023/08/05 05:57:48;;;;;;;12.13;6.27;;;;;;;;;;5066115;28;20055;-61
2023/08/05 06:00:15;;;;;;;16.90;6.93;;;;;;;;;;5068579;28;20048;-60
2023/08/05 06:02:41;;;;;;;10.77;5.70;;;;;;;;;;5068741;28;20430;-61
2023/08/05 06:05:08;;;;;;;9.67;5.03;;;;;;;;;;5066551;28;20044;-61
2023/08/05 06:07:34;;;;;;;9.87;5.57;;;;;;;;;;5067577;28;20047;-61
2023/08/05 06:10:00;;;;;;;8.80;5.30;;;;;;;;;;5068322;28;20036;-63
2023/08/05 06:12:32;;;;;;;8.47;4.53;;;;;;;;;;5068644;28;20055;-64
2023/08/05 06:14:58;;;;;;;7.68;5.03;;;;;;;;;;5066005;28;20084;-64
2023/08/05 06:17:24;;;;;;;9.67;4.77;;;;;;;;;;5067371;28;20477;-64
2023/08/05 06:19:50;;;;;;;7.73;4.93;;;;;;;;;;5063879;28;20124;-64
2023/08/05 06:22:16;;;;;;;9.70;5.17;;;;;;;;;;5065783;28;20337;-64
2023/08/05 06:24:42;;;;;;;8.37;5.37;;;;;;;;;;5063452;28;20041;-65
2023/08/05 06:27:08;;;;;;;11.40;5.87;;;;;;;;;;5061267;28;20502;-64
2023/08/05 06:29:34;;;;;;;9.80;5.33;;;;;;;;;;5054240;28;20044;-64
2023/08/05 06:32:00;;;;;;;9.27;5.27;;;;;;;;;;5068198;28;20090;-64
2023/08/05 06:34:26;;;;;;;10.33;4.83;;;;;;;;;;5067976;28;20117;-64
2023/08/05 06:36:52;;;;;;;10.30;5.20;;;;;;;;;;5067285;28;20389;-64
2023/08/05 06:39:18;;;;;;;16.03;6.80;;;;;;;;;;5067479;28;20071;-64
2023/08/05 06:41:44;;;;;;;8.57;5.20;;;;;;;;;;5064370;28;20490;-64
2023/08/05 06:44:10;;;;;;;9.60;5.00;;;;;;;;;;5063802;28;20139;-64
2023/08/05 06:46:39;;;;;;;12.03;5.00;;;;;;;;;;5066646;28;20048;-64
2023/08/05 06:49:05;;;;;;;10.33;5.37;;;;;;;;;;5064490;28;20465;-64
2023/08/05 06:51:34;;;;;;;10.20;5.23;;;;;;;;;;5066485;28;20105;-64
2023/08/05 06:54:00;;;;;;;7.57;4.80;;;;;;;;;;5066672;28;20051;-64
2023/08/05 06:56:26;;;;;;;9.57;4.70;;;;;;;;;;5066323;28;20040;-64
2023/08/05 06:58:53;;;;;;;9.40;4.83;;;;;;;;;;5064332;28;20406;-64
2023/08/05 07:01:19;;;;;;;12.50;4.83;;;;;;;;;;5053053;28;20048;-64
2023/08/05 07:03:45;;;;;;;13.07;4.73;;;;;;;;;;5056542;28;20477;-64
2023/08/05 07:06:11;;;;;;;11.53;4.63;;;;;;;;;;5052269;28;20139;-64
2023/08/05 07:08:37;;;;;;;11.23;5.27;;;;;;;;;;5050776;28;20072;-64
2023/08/05 07:11:03;;;;;;;6.13;3.70;;;;;;;;;;5068291;28;20051;-64
2023/08/05 07:13:29;;;;;;;14.77;4.77;;;;;;;;;;5066773;28;20041;-64
2023/08/05 07:15:58;;;;;;;10.07;4.40;;;;;;;;;;5067433;28;20041;-64
2023/08/05 07:18:24;;;;;;;10.53;4.43;;;;;;;;;;5066916;28;20083;-64
2023/08/05 07:20:51;;;;;;;8.83;4.23;;;;;;;;;;5067303;28;20045;-63
2023/08/05 07:23:17;;;;;;;8.97;4.90;;;;;;;;;;5055449;28;20053;-64
2023/08/05 07:25:43;;;;;;;6.80;4.30;;;;;;;;;;5061809;28;20052;-63
2023/08/05 07:28:09;;;;;;;6.63;4.20;;;;;;;;;;5066697;28;20356;-63
2023/08/05 07:30:35;;;;;;;9.43;4.83;;;;;;;;;;5068212;28;20044;-63
2023/08/05 07:33:04;;;;;;;5.97;4.00;;;;;;;;;;5066134;28;20460;-64
2023/08/05 07:35:30;;;;;;;8.03;4.17;;;;;;;;;;5067580;28;20083;-63
2023/08/05 07:37:56;;;;;;;9.47;5.33;;;;;;;;;;5065422;28;20586;-64
2023/08/05 07:40:23;;;;;;;7.90;4.80;;;;;;;;;;5060805;28;20040;-65
2023/08/05 07:42:49;;;;;;;10.07;4.47;;;;;;;;;;5051985;28;20115;-64
2023/08/05 07:45:21;;;;;;;10.47;4.73;;;;;;;;;;5066910;28;20060;-65
2023/08/05 07:47:47;;;;;;;7.63;4.47;;;;;;;;;;5059380;28;20091;-65
2023/08/05 07:50:21;;;;;;;8.77;5.00;;;;;;;;;;5057412;28;20049;-64
2023/08/05 07:52:47;;;;;;;8.27;4.07;;;;;;;;;;5067203;28;20048;-64
2023/08/05 07:55:13;;;;;;;6.23;4.57;;;;;;;;;;5060163;28;20052;-65
2023/08/05 07:57:40;;;;;;;8.80;4.37;;;;;;;;;;5055997;28;20487;-65
2023/08/05 08:00:08;;;;;;;10.37;4.00;;;;;;;;;;5063557;28;20127;-65
2023/08/05 08:02:34;;;;;;;7.07;4.00;;;;;;;;;;5057426;28;20529;-65
2023/08/05 08:05:05;;;;;;;7.23;4.00;;;;;;;;;;5046995;28;20041;-65
2023/08/05 08:07:31;;;;;;;9.13;4.20;;;;;;;;;;5056414;28;20065;-64
2023/08/05 08:09:57;;;;;;;7.20;4.27;;;;;;;;;;5068133;28;20093;-64
2023/08/05 08:12:23;;;;;;;6.47;3.97;;;;;;;;;;5070473;28;20049;-64
2023/08/05 08:14:49;;;;;;;7.23;3.50;;;;;;;;;;5059256;28;20033;-64
2023/08/05 08:17:16;;;;;;;9.50;3.63;;;;;;;;;;5056239;28;20040;-64
2023/08/05 08:19:42;;;;;;;7.20;3.43;;;;;;;;;;5071054;28;20135;-64
2023/08/05 08:22:08;;;;;;;7.10;3.33;;;;;;;;;;5070247;28;20051;-65
2023/08/05 08:24:35;;;;;;;5.47;3.13;;;;;;;;;;5070472;28;20044;-64
2023/08/05 08:27:01;;;;;;;5.67;2.70;;;;;;;;;;5070437;28;20056;-64
2023/08/05 08:29:27;;;;;;;5.10;2.70;;;;;;;;;;5070172;28;20529;-64
2023/08/05 08:31:53;;;;;;;6.47;2.50;;;;;;;;;;5070580;28;20115;-64
2023/08/05 08:34:18;;;;;;;7.27;2.50;;;;;;;;;;5070515;28;20095;-64
2023/08/05 08:36:44;;;;;;;7.97;2.47;;;;;;;;;;5070186;28;20338;-64
2023/08/05 08:39:10;;;;;;;5.00;2.43;;;;;;;;;;5070361;28;20040;-64
2023/08/05 08:41:43;;;;;;;9.67;2.70;;;;;;;;;;5069989;28;20044;-64
2023/08/05 08:44:10;;;;;;;;;;;;;;;;;;5070581;28;20059;-65
2023/08/05 08:46:37;;;;;;;4.97;2.17;;;;;;;;;;5066485;28;20485;-64
2023/08/05 08:49:03;;;;;;;4.53;2.53;;;;;;;;;;5069255;28;20064;-64
2023/08/05 08:51:29;;;;;;;6.13;2.73;;;;;;;;;;5069413;28;20044;-64
2023/08/05 08:53:56;;;;;;;5.27;2.17;;;;;;;;;;5069788;28;20559;-64
2023/08/05 08:56:22;;;;;;;8.27;2.77;;;;;;;;;;5065681;28;20117;-64
2023/08/05 08:58:48;;;;;;;7.83;2.50;;;;;;;;;;5070327;28;20126;-64
2023/08/05 09:01:18;;;;;;;6.87;2.73;;;;;;;;;;5068195;28;20170;-64
2023/08/05 09:03:45;;;;;;;8.43;2.70;;;;;;;;;;5070147;28;20055;-64
2023/08/05 09:06:11;;;;;;;8.63;2.50;;;;;;;;;;5069455;28;20174;-64
2023/08/05 09:08:37;;;;;;;5.33;1.83;;;;;;;;;;5069025;28;20135;-65
2023/08/05 09:11:04;;;;;;;5.40;2.20;;;;;;;;;;5065706;28;20041;-64
2023/08/05 09:13:30;;;;;;;4.90;2.10;;;;;;;;;;5066871;28;20513;-64
2023/08/05 09:15:56;;;;;;;9.23;3.70;;;;;;;;;;5069651;28;20111;-64
2023/08/05 09:18:22;;;;;;;8.10;2.83;;;;;;;;;;5067346;28;20061;-64
2023/08/05 09:20:50;;;;;;;6.60;2.23;;;;;;;;;;5060994;28;20056;-64
2023/08/05 09:23:16;;;;;;;5.67;2.23;;;;;;;;;;5057674;28;20482;-64
2023/08/05 09:25:46;;;;;;;5.23;2.40;;;;;;;;;;5062945;28;20465;-63
2023/08/05 09:28:12;;;;;;;4.33;2.17;;;;;;;;;;5067264;28;20540;-64
2023/08/05 09:30:38;;;;;;;3.73;2.00;;;;;;;;;;5068240;28;20135;-64
2023/08/05 09:33:04;;;;;;;4.93;2.43;;;;;;;;;;5063074;28;20175;-63
2023/08/05 09:35:30;;;;;;;4.90;2.23;;;;;;;;;;5050042;28;20202;-64
2023/08/05 09:37:56;;;;;;;6.43;2.57;;;;;;;;;;5069528;28;20461;-64
2023/08/05 09:40:28;;;;;;;6.60;2.10;;;;;;;;;;5068370;28;20043;-64
2023/08/05 09:42:57;;;;;;;4.43;2.20;;;;;;;;;;5061358;28;20059;-64
2023/08/05 09:45:25;;;;;;;4.27;1.93;;;;;;;;;;5052668;28;20055;-64
2023/08/05 09:48:00;;;;;;;3.92;1.95;;;;;;;;;;5068938;28;20052;-64
2023/08/05 09:50:27;;;;;;;4.05;2.05;;;;;;;;;;5061740;28;20049;-64
2023/08/05 09:52:56;;;;;;;4.70;2.75;;;;;;;;;;5067206;28;20171;-63
2023/08/05 09:55:22;;;;;;;5.70;2.50;;;;;;;;;;5067981;28;20079;-64
2023/08/05 09:57:48;;;;;;;5.20;2.63;;;;;;;;;;5067330;28;20033;-64
2023/08/05 10:00:15;;;;;;;3.90;2.40;;;;;;;;;;5067863;28;20052;-64
2023/08/05 10:02:42;;;;;;;7.30;2.70;;;;;;;;;;5067154;28;20045;-63
2023/08/05 10:05:15;;;;;;;4.78;2.38;;;;;;;;;;5068159;28;20049;-64
2023/08/05 10:07:41;;;;;;;;;;;;;;;;;;5065483;28;20066;-64
2023/08/05 10:10:17;;;;;;;5.83;3.00;;;;;;;;;;5054872;28;19970;-63
2023/08/05 10:12:45;;;;;;;7.05;2.97;;;;;;;;;;5066046;28;20052;-63
2023/08/05 10:15:14;;;;;;;6.93;3.65;;;;;;;;;;5067890;28;20048;-63
2023/08/05 10:17:40;;;;;;;7.40;4.10;;;;;;;;;;5068681;28;20055;-63
2023/08/05 10:20:07;;;;;;;11.27;4.32;;;;;;;;;;5067511;28;20052;-63
2023/08/05 10:22:33;;;;;;;7.23;3.50;;;;;;;;;;5067761;28;20047;-63
2023/08/05 10:25:02;;;;;;;6.80;3.43;;;;;;;;;;5055801;28;20045;-63
2023/08/05 10:27:41;;;;;;;6.00;3.73;;;;;;;;;;5052166;28;20041;-63
2023/08/05 10:30:15;;;;;;;6.93;3.33;;;;;;;;;;5056785;28;20052;-63
2023/08/05 10:32:51;;;;;;;5.90;3.30;;;;;;;;;;5061913;28;20523;-63
2023/08/05 10:35:27;;;;;;;5.45;3.35;;;;;;;;;;5067493;28;20048;-63
2023/08/05 10:38:05;;;;;;;5.63;3.17;;;;;;;;;;5057353;28;20410;-63
2023/08/05 10:40:38;;;;;;;4.37;2.93;;;;;;;;;;5065596;28;20102;-63
2023/08/05 10:43:05;;;;;;;4.38;2.95;;;;;;;;;;5059880;28;20045;-63
2023/08/05 10:45:33;;;;;;;5.03;2.90;;;;;;;;;;5061276;28;20562;-63
2023/08/05 10:47:59;;;;;;;7.60;3.40;;;;;;;;;;5067732;28;20060;-63
2023/08/05 10:50:26;;;;;;;4.33;2.70;;;;;;;;;;5066999;28;20056;-63
2023/08/05 10:52:53;;;;;;;8.23;3.33;;;;;;;;;;5061615;28;20123;-63
2023/08/05 10:55:27;;;;;;;7.57;4.20;;;;;;;;;;5065583;28;20044;-63
2023/08/05 10:57:54;;;;;;;6.83;3.70;;;;;;;;;;5067590;28;20157;-63
2023/08/05 11:00:21;;;;;;;11.73;5.10;;;;;;;;;;5067726;28;20048;-62
2023/08/05 11:02:49;;;;;;;75.77;9.33;;;;;;;;;;5064773;28;20127;-63
2023/08/05 11:05:15;;;;;;;17.13;8.20;;;;;;;;;;5067489;28;20044;-65
2023/08/05 11:07:42;;;;;;;15.30;9.60;;;;;;;;;;5063679;28;20048;-65
2023/08/05 11:10:09;;;;;;;83.23;14.57;;;;;;;;;;5067814;28;20104;-65
2023/08/05 11:12:37;;;;;;;57.47;22.57;;;;;;;;;;5067778;28;20388;-65
2023/08/05 11:15:03;;;;;;;31.63;14.03;;;;;;;;;;5062244;28;20534;-65
2023/08/05 11:17:29;;;;;;;25.80;18.63;;;;;;;;;;5064930;28;20056;-64
2023/08/05 11:19:56;;;;;;;21.47;15.13;;;;;;;;;;5063327;28;20048;-65
2023/08/05 11:22:27;;;;;;;26.67;20.87;;;;;;;;;;5066228;28;20049;-65
2023/08/05 11:25:02;;;;;;;34.23;23.07;;;;;;;;;;5067191;28;20593;-66
2023/08/05 11:27:36;;;;;;;24.97;18.10;;;;;;;;;;5067590;28;20495;-65
2023/08/05 11:30:18;;;;;;;32.77;21.97;;;;;;;;;;5064990;28;20071;-65
2023/08/05 11:32:55;;;;;;;21.93;17.50;;;;;;;;;;5055969;28;20057;-66
2023/08/05 11:35:21;;;;;;;22.33;17.73;;;;;;;;;;5047786;28;20041;-66
2023/08/05 11:37:47;;;;;;;16.20;12.90;;;;;;;;;;5047527;28;20411;-66
2023/08/05 11:40:14;;;;;;;16.83;15.13;;;;;;;;;;5046928;28;20036;-65
2023/08/05 11:42:40;;;;;;;13.03;11.67;;;;;;;;;;5050711;28;20092;-65
2023/08/05 11:45:15;;;;;;;14.20;11.10;;;;;;;;;;5051705;28;20456;-64
2023/08/05 11:47:42;;;;;;;8.60;5.73;;;;;;;;;;5051523;28;20503;-64
2023/08/05 11:50:09;;;;;;;8.13;7.23;;;;;;;;;;5051884;28;20546;-64
2023/08/05 11:52:35;;;;;;;10.13;6.93;;;;;;;;;;5051474;28;20449;-64
2023/08/05 11:55:02;;;;;;;9.03;6.63;;;;;;;;;;5051753;28;20131;-64
2023/08/05 11:57:28;;;;;;;8.57;4.83;;;;;;;;;;5067454;28;20453;-63
2023/08/05 11:59:57;;;;;;;6.87;4.37;;;;;;;;;;5071490;28;20148;-63
2023/08/05 12:02:26;;;;;;;7.07;5.13;;;;;;;;;;5070995;28;20547;-62
2023/08/05 12:04:57;;;;;;;5.87;4.37;;;;;;;;;;5071102;28;20490;-63
2023/08/05 12:07:24;;;;;;;5.20;4.50;;;;;;;;;;5054773;28;20053;-62
2023/08/05 12:10:08;;;;;;;7.17;4.20;;;;;;;;;;5064425;28;20395;-62
2023/08/05 12:12:35;;;;;;;6.47;3.63;;;;;;;;;;5070293;28;20410;-62
2023/08/05 12:15:17;;;;;;;7.97;3.30;;;;;;;;;;5070608;28;20402;-62
2023/08/05 12:17:49;;;;;;;6.55;3.15;;;;;;;;;;5069000;28;20379;-61
2023/08/05 12:20:19;;;;;;;4.22;2.65;;;;;;;;;;5070257;28;20044;-61
2023/08/05 12:22:46;;;;;;;3.43;2.90;;;;;;;;;;5068818;28;20594;-61
2023/08/05 12:25:12;;;;;;;7.87;3.10;;;;;;;;;;5070643;28;20079;-61
2023/08/05 12:27:38;;;;;;;3.53;2.67;;;;;;;;;;5069074;28;20052;-62
2023/08/05 12:30:06;;;;;;;4.07;2.53;;;;;;;;;;5068944;28;20040;-61
2023/08/05 12:32:34;;;;;;;3.80;2.27;;;;;;;;;;5069363;28;20048;-61
2023/08/05 12:35:02;;;;;;;3.63;1.90;;;;;;;;;;5070033;28;20072;-61
2023/08/05 12:37:29;;;;;;;3.77;2.10;;;;;;;;;;5067654;28;20464;-61
2023/08/05 12:39:55;;;;;;;4.23;1.90;;;;;;;;;;5066880;28;20049;-61
2023/08/05 12:42:21;;;;;;;5.03;1.90;;;;;;;;;;5067975;28;20063;-61
2023/08/05 12:44:47;;;;;;;3.27;2.10;;;;;;;;;;5069649;28;20047;-61
2023/08/05 12:47:13;;;;;;;3.23;1.60;;;;;;;;;;5069946;28;20501;-61
2023/08/05 12:49:39;;;;;;;4.50;2.00;;;;;;;;;;5068834;28;20494;-60
2023/08/05 12:52:06;;;;;;;2.60;1.77;;;;;;;;;;5070383;28;20049;-61
2023/08/05 12:54:32;;;;;;;2.83;1.60;;;;;;;;;;5068809;28;20474;-61
2023/08/05 12:56:58;;;;;;;2.77;1.67;;;;;;;;;;5061443;28;20187;-61
2023/08/05 12:59:24;;;;;;;2.83;1.77;;;;;;;;;;5057976;28;20050;-61
2023/08/05 13:01:50;;;;;;;4.23;3.00;;;;;;;;;;5069582;28;20461;-61
2023/08/05 13:04:16;;;;;;;9.90;8.00;;;;;;;;;;5068663;28;20494;-61
2023/08/05 13:06:42;;;;;;;10.73;9.73;;;;;;;;;;5068631;28;20082;-61
2023/08/05 13:09:08;;;;;;;13.13;10.03;;;;;;;;;;5064477;28;20498;-61
2023/08/05 13:11:34;;;;;;;10.37;8.23;;;;;;;;;;5070031;28;20032;-61
2023/08/05 13:14:00;;;;;;;4.40;3.60;;;;;;;;;;5064321;28;20462;-61
2023/08/05 13:16:26;;;;;;;2.70;1.73;;;;;;;;;;5059063;28;20107;-61
2023/08/05 13:18:52;;;;;;;3.30;1.80;;;;;;;;;;5069342;28;20028;-60
2023/08/05 13:21:18;;;;;;;3.63;1.80;;;;;;;;;;5064610;28;20049;-60
2023/08/05 13:23:44;;;;;;;3.00;1.70;;;;;;;;;;5063830;28;20044;-61
2023/08/05 13:26:10;;;;;;;5.17;2.03;;;;;;;;;;5068611;28;20056;-60
2023/08/05 13:28:36;;;;;;;3.63;1.87;;;;;;;;;;5068907;28;20430;-61
2023/08/05 13:31:03;;;;;;;5.03;1.80;;;;;;;;;;5066254;28;20051;-61
2023/08/05 13:33:29;;;;;;;3.83;1.57;;;;;;;;;;5051155;28;20454;-61
2023/08/05 13:35:55;;;;;;;3.63;1.80;;;;;;;;;;5062635;28;20082;-61
2023/08/05 13:38:21;;;;;;;4.77;1.80;;;;;;;;;;5067270;28;20174;-60
2023/08/05 13:40:54;;;;;;;3.43;1.53;;;;;;;;;;5067556;28;20131;-61
2023/08/05 13:43:22;;;;;;;3.83;1.90;;;;;;;;;;5067386;28;20047;-60
2023/08/05 13:45:49;;;;;;;4.53;2.03;;;;;;;;;;5067351;28;20293;-61
2023/08/05 13:48:15;;;;;;;3.87;2.23;;;;;;;;;;5066958;28;20056;-61
2023/08/05 13:50:41;;;;;;;2.87;1.60;;;;;;;;;;5067530;28;20135;-60
2023/08/05 13:53:07;;;;;;;4.27;1.80;;;;;;;;;;5060808;28;20048;-61
2023/08/05 13:55:33;;;;;;;4.47;1.70;;;;;;;;;;5063666;28;20044;-60
2023/08/05 13:57:59;;;;;;;36.40;3.73;;;;;;;;;;5068461;28;20064;-61
2023/08/05 14:00:25;;;;;;;8.80;3.20;;;;;;;;;;5052864;28;20056;-64
2023/08/05 14:02:51;;;;;;;6.30;3.30;;;;;;;;;;5069344;28;20049;-65
2023/08/05 14:05:17;;;;;;;6.30;3.53;;;;;;;;;;5062887;28;20044;-64
2023/08/05 14:07:43;;;;;;;4.47;3.30;;;;;;;;;;5065832;28;20044;-64
2023/08/05 14:10:09;;;;;;;8.80;4.03;;;;;;;;;;5066441;28;20125;-65
2023/08/05 14:12:35;;;;;;;23.30;4.80;;;;;;;;;;5067091;28;20474;-65
2023/08/05 14:15:01;;;;;;;14.30;4.37;;;;;;;;;;5067706;28;20131;-64
2023/08/05 14:17:29;;;;;;;9.90;4.93;;;;;;;;;;5067893;28;20063;-64
2023/08/05 14:19:55;;;;;;;23.90;7.60;;;;;;;;;;5067546;28;20060;-64
2023/08/05 14:22:20;;;;;;;13.50;7.10;;;;;;;;;;5068480;28;20414;-64
2023/08/05 14:24:46;;;;;;;12.23;8.37;;;;;;;;;;5051039;28;20044;-64
2023/08/05 14:27:12;;;;;;;11.60;8.97;;;;;;;;;;5058204;28;20395;-64
2023/08/05 14:29:38;;;;;;;10.00;7.97;;;;;;;;;;5067268;28;20131;-64
2023/08/05 14:32:04;;;;;;;15.13;10.30;;;;;;;;;;5068017;28;20637;-64